Time;durP1;ratioP1;P1;durP2;ratioP2;P2;SDS_P1;SDS_P2;PMS_P1;PMS_P2;Temp;Humidity;BMP_temperature;BMP_pressure;BME280_temperature;BME280_humidity;BME280_pressure;Samples;Min_cycle;Max_cycle;Signal;HPM_P1;HPM_P2
2023/08/25 00:00:00;;;;;;;41.60;39.60;;;;;;;18.08;100.00;100817.47;5047878;28;20435;-43
2023/08/25 00:02:27;;;;;;;34.90;33.10;;;;;;;18.12;100.00;100812.41;5043623;28;20497;-42
2023/08/25 00:04:55;;;;;;;38.13;36.27;;;;;;;18.16;100.00;100810.84;5049715;28;20508;-43
2023/08/25 00:07:23;;;;;;;30.60;29.10;;;;;;;18.23;100.00;100801.53;5050181;28;20518;-43
2023/08/25 00:09:50;;;;;;;31.57;30.10;;;;;;;18.27;100.00;100815.38;5041322;28;20442;-43
2023/08/25 00:12:18;;;;;;;39.63;37.43;;;;;;;18.31;100.00;100808.38;5041775;28;20487;-42
2023/08/25 00:14:47;;;;;;;35.40;33.73;;;;;;;18.35;100.00;100808.72;5049852;28;20462;-43
2023/08/25 00:17:15;;;;;;;37.07;35.37;;;;;;;18.36;100.00;100799.56;5053276;28;20506;-42
2023/08/25 00:19:42;;;;;;;41.50;39.60;;;;;;;18.40;100.00;100804.22;5052904;28;20435;-43
2023/08/25 00:22:10;;;;;;;42.33;40.33;;;;;;;18.37;100.00;100807.41;5051764;28;20452;-42
2023/08/25 00:24:38;;;;;;;39.20;37.20;;;;;;;18.36;100.00;100799.56;5057620;28;20458;-45
2023/08/25 00:27:06;;;;;;;45.63;42.90;;;;;;;18.37;100.00;100806.63;5056898;28;20930;-44
2023/08/25 00:29:33;;;;;;;40.03;37.90;;;;;;;18.36;100.00;100807.66;5051662;28;20471;-44
2023/08/25 00:32:02;;;;;;;43.10;40.60;;;;;;;18.35;100.00;100804.16;5047534;28;20546;-43
2023/08/25 00:34:30;;;;;;;40.40;38.53;;;;;;;18.37;100.00;100801.22;5057587;28;20461;-47
2023/08/25 00:36:59;;;;;;;44.30;41.20;;;;;;;18.37;100.00;100806.63;5057788;28;20502;-43
2023/08/25 00:39:29;;;;;;;41.53;39.47;;;;;;;18.38;100.00;100806.34;5053036;28;20440;-42
2023/08/25 00:41:57;;;;;;;41.53;39.13;;;;;;;18.39;100.00;100809.88;5054037;28;20431;-42
2023/08/25 00:44:24;;;;;;;39.63;37.80;;;;;;;18.38;100.00;100816.34;5045262;28;20501;-44
2023/08/25 00:46:52;;;;;;;38.13;35.90;;;;;;;18.36;100.00;100813.91;5053190;28;20499;-43
2023/08/25 00:49:22;;;;;;;40.70;38.70;;;;;;;18.39;100.00;100809.88;5041311;28;20431;-42
2023/08/25 00:51:51;;;;;;;39.43;36.90;;;;;;;18.40;100.00;100808.81;5048506;28;20459;-44
2023/08/25 00:54:20;;;;;;;35.20;33.60;;;;;;;18.44;100.00;100804.56;5057140;28;20454;-46
2023/08/25 00:56:49;;;;;;;37.97;36.17;;;;;;;18.40;100.00;100798.81;5049755;28;20474;-42
2023/08/25 00:59:18;;;;;;;37.67;35.93;;;;;;;18.41;100.00;100791.53;5049442;28;20498;-47
2023/08/25 01:01:46;;;;;;;38.60;36.80;;;;;;;18.41;100.00;100775.34;5049753;28;20443;-41
2023/08/25 01:04:14;;;;;;;38.07;35.83;;;;;;;18.41;100.00;100780.75;5049298;28;20831;-41
2023/08/25 01:06:44;;;;;;;39.10;37.43;;;;;;;18.42;100.00;100777.81;5058363;28;20470;-46
2023/08/25 01:09:12;;;;;;;39.93;37.90;;;;;;;18.43;100.00;100768.63;5057138;28;20517;-42
2023/08/25 01:11:49;;;;;;;38.43;36.50;;;;;;;18.43;100.00;100765.13;5048766;28;20442;-42
2023/08/25 01:14:22;;;;;;;41.70;39.43;;;;;;;18.45;100.00;100765.69;5057319;28;20486;-43
2023/08/25 01:16:57;;;;;;;42.47;40.57;;;;;;;18.49;100.00;100753.34;5050313;28;20432;-41
2023/08/25 01:19:44;;;;;;;42.27;40.03;;;;;;;18.49;100.00;100764.13;5050187;28;20489;-41
2023/08/25 01:22:20;;;;;;;42.73;40.57;;;;;;;18.51;100.00;100753.94;5051107;28;20451;-42
2023/08/25 01:24:53;;;;;;;43.73;41.83;;;;;;;18.55;100.00;100752.34;5049247;28;20486;-42
2023/08/25 01:27:22;;;;;;;42.40;40.53;;;;;;;18.56;100.00;100751.28;5052844;28;20993;-41
2023/08/25 01:29:50;;;;;;;43.83;41.83;;;;;;;18.57;100.00;100751.06;5053463;28;20467;-41
2023/08/25 01:32:19;;;;;;;44.87;42.83;;;;;;;18.59;100.00;100748.09;5053366;28;20787;-42
2023/08/25 01:34:47;;;;;;;43.87;41.87;;;;;;;18.60;100.00;100747.88;5060588;28;20493;-41
2023/08/25 01:37:22;;;;;;;43.20;41.30;;;;;;;18.61;100.00;100738.69;5059116;28;20441;-41
2023/08/25 01:39:52;;;;;;;48.93;46.80;;;;;;;18.61;100.00;100743.25;5056769;28;20433;-41
2023/08/25 01:42:23;;;;;;;48.13;46.23;;;;;;;18.60;100.00;100733.53;5049327;28;20451;-44
2023/08/25 01:44:52;;;;;;;50.93;48.83;;;;;;;18.60;100.00;100733.53;5048454;28;21044;-43
2023/08/25 01:47:24;;;;;;;50.93;48.73;;;;;;;18.59;100.00;100723.78;5052425;28;20442;-41
2023/08/25 01:49:53;;;;;;;52.37;50.07;;;;;;;18.56;100.00;100714.31;5053127;28;20431;-43
2023/08/25 01:52:21;;;;;;;54.90;52.53;;;;;;;18.55;100.00;100711.84;5051486;28;20448;-45
2023/08/25 01:54:49;;;;;;;58.87;55.77;;;;;;;18.52;100.00;100715.84;5044824;28;20464;-43
2023/08/25 01:57:17;;;;;;;52.93;50.93;;;;;;;18.52;100.00;100713.16;5059339;28;20461;-41
2023/08/25 01:59:46;;;;;;;61.57;59.07;;;;;;;18.50;100.00;100717.19;5061140;28;20442;-43
2023/08/25 02:02:14;;;;;;;59.67;56.87;;;;;;;18.47;100.00;100704.97;5060438;28;20550;-41
2023/08/25 02:04:41;;;;;;;58.40;55.90;;;;;;;18.46;100.00;100702.50;5059675;28;20469;-43
2023/08/25 02:07:09;;;;;;;60.53;58.03;;;;;;;18.44;100.00;100694.66;5051803;28;20432;-44
2023/08/25 02:09:37;;;;;;;64.27;61.57;;;;;;;18.43;100.00;100700.31;5046687;28;20427;-42
2023/08/25 02:12:05;;;;;;;61.23;58.60;;;;;;;18.41;100.00;100705.97;5057548;28;20454;-41
2023/08/25 02:14:32;;;;;;;64.27;61.50;;;;;;;18.40;100.00;100700.81;5051139;28;20493;-41
2023/08/25 02:17:01;;;;;;;72.67;69.70;;;;;;;18.39;100.00;100691.09;5052528;28;20508;-43
2023/08/25 02:19:29;;;;;;;66.43;63.63;;;;;;;18.37;100.00;100677.81;5060717;28;20477;-41
2023/08/25 02:21:57;;;;;;;67.20;64.50;;;;;;;18.35;100.00;100674.56;5051788;28;20947;-44
2023/08/25 02:24:24;;;;;;;68.40;65.50;;;;;;;18.33;100.00;100686.69;5050065;28;20546;-44
2023/08/25 02:26:52;;;;;;;71.10;67.90;;;;;;;18.33;100.00;100690.19;5052518;28;20431;-44
2023/08/25 02:29:20;;;;;;;71.63;68.63;;;;;;;18.31;100.00;100686.91;5059695;28;20497;-41
2023/08/25 02:31:47;;;;;;;67.17;64.57;;;;;;;18.31;100.00;100688.81;5052413;28;20431;-42
2023/08/25 02:34:17;;;;;;;72.77;69.53;;;;;;;18.30;100.00;100685.28;5058856;28;20526;-41
2023/08/25 02:36:46;;;;;;;71.47;68.10;;;;;;;18.29;100.00;100686.34;5060538;28;20452;-43
2023/08/25 02:39:14;;;;;;;71.07;67.50;;;;;;;18.30;100.00;100689.88;5051711;28;20541;-42
2023/08/25 02:41:42;;;;;;;64.30;61.70;;;;;;;18.31;100.00;100692.31;5060200;28;20463;-41
2023/08/25 02:44:09;;;;;;;69.97;66.60;;;;;;;18.31;100.00;100678.81;5058060;28;21244;-41
2023/08/25 02:46:37;;;;;;;66.60;64.00;;;;;;;18.32;100.00;100677.75;5054501;28;20444;-42
2023/08/25 02:49:05;;;;;;;68.50;65.70;;;;;;;18.28;100.00;100673.13;5059341;28;20935;-42
2023/08/25 02:51:34;;;;;;;74.77;71.87;;;;;;;18.27;100.00;100668.78;5055953;28;20950;-41
2023/08/25 02:54:01;;;;;;;77.43;74.23;;;;;;;18.23;100.00;100665.75;5062292;28;20534;-41
2023/08/25 02:56:29;;;;;;;73.70;70.60;;;;;;;18.20;100.00;100664.38;5059825;28;20431;-42
2023/08/25 02:58:57;;;;;;;69.67;66.87;;;;;;;18.19;100.00;100654.63;5052005;28;20467;-45
2023/08/25 03:01:24;;;;;;;71.47;68.40;;;;;;;18.17;100.00;100655.94;5060158;28;20965;-41
2023/08/25 03:03:52;;;;;;;72.30;69.13;;;;;;;18.14;100.00;100649.16;5058940;28;20594;-41
2023/08/25 03:06:20;;;;;;;72.40;69.07;;;;;;;18.13;100.00;100638.59;5059731;28;20423;-42
2023/08/25 03:08:49;;;;;;;71.90;68.60;;;;;;;18.12;100.00;100645.09;5059849;28;20443;-41
2023/08/25 03:11:16;;;;;;;65.50;62.90;;;;;;;18.11;100.00;100644.25;5059663;28;20783;-43
2023/08/25 03:13:44;;;;;;;72.00;69.10;;;;;;;18.10;100.00;100639.91;5059343;28;20513;-42
2023/08/25 03:16:12;;;;;;;76.33;72.93;;;;;;;18.09;100.00;100632.91;5050044;28;20918;-45
2023/08/25 03:18:40;;;;;;;75.60;72.33;;;;;;;18.11;100.00;100635.34;5053665;28;20470;-42
2023/08/25 03:21:07;;;;;;;69.10;66.20;;;;;;;18.11;100.00;100644.25;5050662;28;20427;-42
2023/08/25 03:23:35;;;;;;;72.43;69.43;;;;;;;18.12;100.00;100637.81;5057551;28;20526;-43
2023/08/25 03:26:05;;;;;;;76.27;73.00;;;;;;;18.14;100.00;100632.97;5051411;28;20890;-41
2023/08/25 03:28:32;;;;;;;69.27;66.20;;;;;;;18.17;100.00;100637.03;5055400;28;20500;-42
2023/08/25 03:31:00;;;;;;;76.90;73.20;;;;;;;18.19;100.00;100635.72;5055456;28;20461;-42
2023/08/25 03:33:28;;;;;;;74.17;70.93;;;;;;;18.21;100.00;100630.91;5042884;28;20997;-41
2023/08/25 03:35:55;;;;;;;71.43;67.83;;;;;;;18.22;100.00;100626.31;5059431;28;20427;-41
2023/08/25 03:38:23;;;;;;;66.87;63.93;;;;;;;18.23;100.00;100636.88;5050575;28;20473;-41
2023/08/25 03:40:58;;;;;;;66.97;63.87;;;;;;;18.25;100.00;100634.72;5050858;28;20431;-42
2023/08/25 03:43:27;;;;;;;72.27;69.00;;;;;;;18.24;100.00;100626.91;5058275;28;20458;-41
2023/08/25 03:45:54;;;;;;;72.30;68.90;;;;;;;18.25;100.00;100628.50;5057194;28;20488;-41
2023/08/25 03:48:24;;;;;;;80.10;76.40;;;;;;;18.24;100.00;100626.91;5058665;28;20433;-42
2023/08/25 03:50:51;;;;;;;79.83;75.63;;;;;;;18.25;100.00;100617.72;5044026;28;20515;-43
2023/08/25 03:53:19;;;;;;;82.57;77.83;;;;;;;18.27;100.00;100620.19;5054645;28;20455;-42
2023/08/25 03:55:47;;;;;;;78.00;74.10;;;;;;;18.27;100.00;100622.88;5044037;28;20434;-42
2023/08/25 03:58:14;;;;;;;77.23;73.13;;;;;;;18.28;100.00;100625.31;5050364;28;20436;-41
2023/08/25 04:00:44;;;;;;;74.07;70.27;;;;;;;18.31;100.00;100622.13;5050686;28;20557;-42
2023/08/25 04:03:11;;;;;;;82.70;78.43;;;;;;;18.33;100.00;100630.81;5058376;28;20458;-41
2023/08/25 04:05:39;;;;;;;64.90;60.73;;;;;;;18.37;100.00;100629.22;5058233;28;20447;-42
2023/08/25 04:08:07;;;;;;;79.40;75.40;;;;;;;18.39;100.00;100640.59;5050549;28;20431;-42
2023/08/25 04:10:34;;;;;;;72.37;68.83;;;;;;;18.43;100.00;100638.22;5058631;28;20693;-42
2023/08/25 04:13:02;;;;;;;78.83;74.50;;;;;;;18.45;100.00;100644.19;5049572;28;20488;-41
2023/08/25 04:15:30;;;;;;;75.53;71.27;;;;;;;18.46;100.00;100640.41;5046351;28;20464;-41
2023/08/25 04:17:59;;;;;;;75.97;72.07;;;;;;;18.46;100.00;100635.00;5047577;28;20442;-44
2023/08/25 04:20:26;;;;;;;88.23;83.13;;;;;;;18.47;100.00;100636.63;5066200;28;20501;-41
2023/08/25 04:22:54;;;;;;;90.83;86.03;;;;;;;18.48;100.00;100633.69;5057958;28;20515;-41
2023/08/25 04:25:22;;;;;;;97.73;92.27;;;;;;;18.46;100.00;100626.88;5055801;28;20463;-42
2023/08/25 04:27:50;;;;;;;98.17;92.50;;;;;;;18.48;100.00;100624.78;5060653;28;20435;-42
2023/08/25 04:30:22;;;;;;;102.47;96.37;;;;;;;18.48;100.00;100627.47;5058273;28;20496;-41
2023/08/25 04:32:50;;;;;;;102.53;96.43;;;;;;;18.51;100.00;100621.59;5058470;28;20521;-41
2023/08/25 04:35:19;;;;;;;91.70;86.60;;;;;;;18.53;100.00;100624.88;5056167;28;20549;-42
2023/08/25 04:37:48;;;;;;;84.73;80.10;;;;;;;18.54;100.00;100613.81;5052650;28;20602;-44
2023/08/25 04:40:16;;;;;;;102.13;96.27;;;;;;;18.57;100.00;100618.72;5048006;28;20474;-41
2023/08/25 04:42:43;;;;;;;96.37;91.27;;;;;;;18.58;100.00;100624.91;5051383;28;20454;-42
2023/08/25 04:45:12;;;;;;;100.40;95.00;;;;;;;18.62;100.00;100623.34;5056445;28;20474;-41
2023/08/25 04:47:40;;;;;;;104.80;98.87;;;;;;;18.65;100.00;100625.56;5051785;28;20485;-46
2023/08/25 04:50:09;;;;;;;101.80;96.53;;;;;;;18.69;100.00;100613.19;5049572;28;20433;-44
2023/08/25 04:52:38;;;;;;;111.73;106.20;;;;;;;18.73;100.00;100630.50;5057425;28;20634;-45
2023/08/25 04:55:06;;;;;;;106.50;100.90;;;;;;;18.82;100.00;100636.31;5057842;28;21102;-43
2023/08/25 04:57:35;;;;;;;113.97;107.40;;;;;;;18.84;100.00;100626.03;5057094;28;20435;-44
2023/08/25 05:00:05;;;;;;;119.93;112.60;;;;;;;18.92;100.00;100623.72;5057258;28;20463;-42
2023/08/25 05:02:33;;;;;;;122.17;115.07;;;;;;;18.97;100.00;100634.56;5048595;28;20459;-42
2023/08/25 05:05:02;;;;;;;120.60;114.00;;;;;;;18.99;100.00;100637.84;5049164;28;20527;-44
2023/08/25 05:07:30;;;;;;;122.20;114.93;;;;;;;19.04;100.00;100639.78;5047271;28;20432;-43
2023/08/25 05:09:58;;;;;;;122.87;115.93;;;;;;;19.07;100.00;100644.66;5053643;28;20431;-42
2023/08/25 05:12:26;;;;;;;118.53;110.53;;;;;;;19.09;100.00;100650.63;5046747;28;20446;-41
2023/08/25 05:14:54;;;;;;;113.47;106.90;;;;;;;19.11;100.00;100653.91;5043404;28;20480;-42
2023/08/25 05:17:21;;;;;;;116.70;109.87;;;;;;;19.12;100.00;100653.63;5057923;28;20459;-44
2023/08/25 05:19:50;;;;;;;125.90;117.60;;;;;;;19.13;100.00;100660.69;5057995;28;20520;-42
2023/08/25 05:22:17;;;;;;;133.00;123.60;;;;;;;19.18;100.00;100659.91;5057514;28;20458;-41
2023/08/25 05:24:45;;;;;;;98.27;92.67;;;;;;;19.23;100.00;100655.38;5064241;28;20482;-42
2023/08/25 05:27:14;;;;;;;110.87;104.40;;;;;;;19.33;100.00;100660.06;5049065;28;20502;-43
2023/08/25 05:29:41;;;;;;;100.97;94.87;;;;;;;19.47;100.00;100652.41;5057678;28;20423;-44
2023/08/25 05:32:09;;;;;;;93.00;87.40;;;;;;;19.63;100.00;100659.56;5057533;28;20981;-43
2023/08/25 05:34:37;;;;;;;96.30;89.40;;;;;;;19.81;100.00;100646.44;5049136;28;20454;-42
2023/08/25 05:37:05;;;;;;;101.70;94.53;;;;;;;20.06;100.00;100655.81;5049448;28;20521;-46
2023/08/25 05:39:33;;;;;;;90.60;84.90;;;;;;;20.11;100.00;100666.69;5049337;28;20510;-42
2023/08/25 05:42:00;;;;;;;92.97;86.73;;;;;;;20.05;100.00;100668.53;5057229;28;20435;-42
2023/08/25 05:44:29;;;;;;;98.23;91.60;;;;;;;20.05;100.00;100670.44;5054700;28;20446;-41
2023/08/25 05:46:58;;;;;;;92.73;86.93;;;;;;;20.13;100.00;100680.78;5046320;28;20438;-42
2023/08/25 05:49:26;;;;;;;100.47;93.67;;;;;;;20.14;100.00;100672.38;5064680;28;20493;-42
2023/08/25 05:51:53;;;;;;;100.80;93.37;;;;;;;20.21;100.00;100675.69;5057484;28;20434;-43
2023/08/25 05:54:21;;;;;;;101.50;94.20;;;;;;;20.37;100.00;100669.31;5048260;28;20477;-42
2023/08/25 05:56:49;;;;;;;84.57;78.20;;;;;;;20.68;100.00;100672.16;5058549;28;20434;-42
2023/08/25 05:59:16;;;;;;;75.83;70.53;;;;;;;21.09;100.00;100673.13;5056102;28;20494;-41
2023/08/25 06:01:45;;;;;;;83.30;77.00;;;;;;;21.28;100.00;100672.38;5059303;28;20550;-42
2023/08/25 06:04:13;;;;;;;66.37;61.87;;;;;;;21.34;100.00;100676.75;5056236;28;20455;-42
2023/08/25 06:06:41;;;;;;;85.27;79.80;;;;;;;21.25;100.00;100683.78;5044794;28;20436;-41
2023/08/25 06:09:09;;;;;;;76.67;71.23;;;;;;;21.22;100.00;100672.63;5056791;28;20494;-42
2023/08/25 06:11:37;;;;;;;78.87;73.23;;;;;;;21.33;100.00;100669.69;5061468;28;20469;-41
2023/08/25 06:14:05;;;;;;;87.27;81.50;;;;;;;21.36;100.00;100669.13;5052954;28;20470;-41
2023/08/25 06:16:33;;;;;;;77.30;72.07;;;;;;;21.47;100.00;100672.69;5047378;28;20506;-41
2023/08/25 06:19:03;;;;;;;85.93;80.00;;;;;;;21.46;100.00;100680.00;5046139;28;20427;-41
2023/08/25 06:21:31;;;;;;;80.60;75.07;;;;;;;21.42;100.00;100659.94;5049858;28;20857;-42
2023/08/25 06:23:59;;;;;;;94.13;87.40;;;;;;;21.37;100.00;100670.78;5050155;28;20459;-44
2023/08/25 06:26:26;;;;;;;85.80;79.70;;;;;;;21.33;100.00;100671.56;5051759;28;20482;-41
2023/08/25 06:28:56;;;;;;;93.90;86.50;;;;;;;21.25;100.00;100681.06;5052222;28;20437;-42
2023/08/25 06:31:24;;;;;;;85.70;79.60;;;;;;;21.24;100.00;100671.28;5043122;28;20441;-42
2023/08/25 06:33:51;;;;;;;92.23;86.07;;;;;;;21.23;100.00;100666.97;5051188;28;20852;-41
2023/08/25 06:36:21;;;;;;;95.47;88.30;;;;;;;21.28;100.00;100675.09;5042697;28;20521;-42
2023/08/25 06:38:48;;;;;;;91.13;85.00;;;;;;;21.31;100.00;100676.47;5045942;28;21147;-42
2023/08/25 06:41:23;;;;;;;86.23;80.37;;;;;;;21.31;100.00;100680.00;5047438;28;20478;-42
2023/08/25 06:43:51;;;;;;;91.33;85.33;;;;;;;21.31;100.00;100679.16;5043421;28;20629;-42
2023/08/25 06:46:19;;;;;;;96.37;89.30;;;;;;;21.27;100.00;100689.75;5051304;28;20789;-41
2023/08/25 06:48:47;;;;;;;97.97;91.07;;;;;;;21.31;100.00;100693.56;5051203;28;20513;-42
2023/08/25 06:51:15;;;;;;;89.27;83.50;;;;;;;21.31;100.00;100690.84;5050560;28;20526;-41
2023/08/25 06:53:44;;;;;;;81.93;76.33;;;;;;;21.35;100.00;100691.13;5050379;28;20469;-41
2023/08/25 06:56:11;;;;;;;77.23;71.53;;;;;;;21.37;100.00;100694.38;5042351;28;20856;-41
2023/08/25 06:58:39;;;;;;;78.73;73.43;;;;;;;21.47;100.00;100691.69;5042714;28;20512;-44
2023/08/25 07:01:07;;;;;;;73.30;67.77;;;;;;;21.62;100.00;100699.84;5042490;28;20477;-43
2023/08/25 07:03:35;;;;;;;68.50;63.57;;;;;;;21.93;100.00;100701.50;5046334;28;20978;-45
2023/08/25 07:06:05;;;;;;;71.50;66.13;;;;;;;22.32;100.00;100698.19;5045145;28;20430;-43
2023/08/25 07:08:33;;;;;;;72.67;67.63;;;;;;;22.76;100.00;100687.50;5050747;28;20873;-43
2023/08/25 07:11:03;;;;;;;66.67;61.93;;;;;;;23.26;100.00;100692.69;5050294;28;21157;-41
2023/08/25 07:13:32;;;;;;;64.73;60.30;;;;;;;23.76;100.00;100679.81;5040911;28;20456;-44
2023/08/25 07:16:00;;;;;;;60.20;56.30;;;;;;;24.36;100.00;100673.00;5044175;28;20870;-41
2023/08/25 07:18:28;;;;;;;54.90;51.63;;;;;;;24.57;100.00;100650.69;5047710;28;20438;-45
2023/08/25 07:20:56;;;;;;;55.27;51.43;;;;;;;25.23;100.00;100658.81;5049609;28;20880;-43
2023/08/25 07:23:23;;;;;;;47.70;44.70;;;;;;;25.73;100.00;100650.94;5040957;28;21054;-42
2023/08/25 07:25:52;;;;;;;46.17;43.30;;;;;;;26.06;100.00;100652.56;5044606;28;20454;-46
2023/08/25 07:28:22;;;;;;;45.93;43.17;;;;;;;26.33;100.00;100654.53;5038418;28;20443;-42
2023/08/25 07:30:51;;;;;;;45.10;42.30;;;;;;;26.40;100.00;100652.22;5040178;28;20798;-42
2023/08/25 07:33:19;;;;;;;41.43;39.00;;;;;;;26.68;100.00;100644.78;5048449;28;20458;-46
2023/08/25 07:35:47;;;;;;;39.23;37.23;;;;;;;26.43;100.00;100646.16;5049124;28;20459;-47
2023/08/25 07:38:15;;;;;;;38.00;35.70;;;;;;;25.77;100.00;100643.78;5048596;28;20441;-43
2023/08/25 07:40:43;;;;;;;37.90;35.80;;;;;;;25.48;100.00;100654.91;5040556;28;20505;-42
2023/08/25 07:43:10;;;;;;;35.73;33.60;;;;;;;25.36;100.00;100653.72;5040837;28;20461;-44
2023/08/25 07:45:40;;;;;;;36.10;34.10;;;;;;;25.02;100.00;100653.94;5048442;28;20445;-42
2023/08/25 07:48:08;;;;;;;35.53;33.73;;;;;;;24.69;100.00;100655.72;5049471;28;20880;-43
2023/08/25 07:50:36;;;;;;;33.70;31.93;;;;;;;24.65;100.00;100666.38;5040939;28;20436;-44
2023/08/25 07:53:04;;;;;;;36.87;34.80;;;;;;;24.90;100.00;100676.22;5048601;28;20562;-43
2023/08/25 07:55:32;;;;;;;37.10;35.20;;;;;;;25.13;100.00;100683.53;5048401;28;20538;-45
2023/08/25 07:58:00;;;;;;;37.60;35.03;;;;;;;25.05;100.00;100686.09;5042289;28;20427;-45
2023/08/25 08:00:27;;;;;;;32.50;30.77;;;;;;;24.89;100.00;100681.94;5046943;28;20430;-42
2023/08/25 08:02:56;;;;;;;36.90;34.50;;;;;;;24.65;100.00;100677.28;5040163;28;20497;-41
2023/08/25 08:05:26;;;;;;;36.13;33.70;;;;;;;24.56;100.00;100687.22;5039800;28;21024;-42
2023/08/25 08:07:54;;;;;;;36.60;34.27;;;;;;;24.92;100.00;100686.81;5048587;28;21017;-45
2023/08/25 08:10:22;;;;;;;32.07;30.40;;;;;;;25.29;100.00;100684.94;5048683;28;21051;-42
2023/08/25 08:12:50;;;;;;;33.93;32.20;;;;;;;25.74;100.00;100682.63;5048471;28;20443;-42
2023/08/25 08:15:17;;;;;;;30.07;28.40;;;;;;;26.20;100.00;100690.84;5048345;28;20467;-45
2023/08/25 08:17:45;;;;;;;31.10;29.30;;;;;;;26.43;100.00;100683.59;5040688;28;20435;-43
2023/08/25 08:20:14;;;;;;;29.47;27.50;;;;;;;26.44;100.00;100679.75;5040794;28;20471;-44
2023/08/25 08:22:42;;;;;;;28.87;27.40;;;;;;;26.85;100.00;100675.91;5047531;28;20470;-45
2023/08/25 08:25:11;;;;;;;25.90;24.70;;;;;;;26.96;100.00;100678.44;5041348;28;20468;-42
2023/08/25 08:27:40;;;;;;;25.57;24.17;;;;;;;26.31;100.00;100681.38;5047726;28;20492;-43
2023/08/25 08:30:09;;;;;;;24.83;23.33;;;;;;;25.67;100.00;100671.25;5048547;28;20521;-47
2023/08/25 08:32:38;;;;;;;24.60;23.20;;;;;;;25.64;100.00;100688.25;5039650;28;20454;-43
2023/08/25 08:35:08;;;;;;;23.27;21.77;;;;;;;25.01;100.00;100685.06;5047872;28;20512;-42
2023/08/25 08:37:38;;;;;;;23.07;21.90;;;;;;;25.12;100.00;100692.81;5046222;28;20952;-46
2023/08/25 08:40:09;;;;;;;23.33;22.23;;;;;;;25.58;100.00;100695.72;5037232;28;20431;-43
2023/08/25 08:42:38;;;;;;;22.37;20.90;;;;;;;25.40;100.00;100685.59;5037882;28;20482;-42
2023/08/25 08:45:08;;;;;;;21.00;19.93;;;;;;;25.28;100.00;100677.03;5047296;28;20493;-43
2023/08/25 08:47:37;;;;;;;20.00;18.90;;;;;;;25.02;100.00;100662.94;5051191;28;20881;-44
2023/08/25 08:50:07;;;;;;;18.83;17.83;;;;;;;25.14;100.00;100666.06;5053926;28;20798;-41
2023/08/25 08:52:37;;;;;;;19.03;17.93;;;;;;;25.27;100.00;100650.84;5048009;28;20522;-42
2023/08/25 08:55:06;;;;;;;18.87;17.77;;;;;;;25.41;100.00;100651.72;5048024;28;20466;-41
2023/08/25 08:57:34;;;;;;;17.80;16.63;;;;;;;25.71;100.00;100654.00;5047622;28;20434;-42
2023/08/25 09:00:03;;;;;;;17.70;15.87;;;;;;;25.70;100.00;100657.00;5041827;28;20987;-45
2023/08/25 09:02:32;;;;;;;15.40;14.60;;;;;;;25.84;100.00;100649.66;5036912;28;20487;-42
2023/08/25 09:05:01;;;;;;;15.10;14.00;;;;;;;25.57;100.00;100642.19;5038260;28;20463;-42
2023/08/25 09:07:32;;;;;;;15.17;14.17;;;;;;;25.50;100.00;100639.06;5048380;28;20423;-45
2023/08/25 09:10:01;;;;;;;14.07;13.27;;;;;;;25.90;100.00;100642.19;5043166;28;20933;-43
2023/08/25 09:12:30;;;;;;;12.73;12.03;;;;;;;25.78;100.00;100634.47;5043659;28;20453;-42
2023/08/25 09:14:58;;;;;;;13.77;12.40;;;;;;;25.86;100.00;100644.72;5039958;28;21061;-42
2023/08/25 09:17:25;;;;;;;11.50;10.90;;;;;;;25.98;100.00;100655.16;5047705;28;20521;-44
2023/08/25 09:20:04;;;;;;;12.17;11.57;;;;;;;25.95;100.00;100651.13;5040675;28;20431;-41
2023/08/25 09:22:32;;;;;;;13.10;12.30;;;;;;;25.95;100.00;100642.94;5040293;28;20574;-44
2023/08/25 09:25:01;;;;;;;12.10;11.40;;;;;;;26.35;100.00;100652.28;5048250;28;20459;-41
2023/08/25 09:27:29;;;;;;;12.93;11.97;;;;;;;26.19;100.00;100656.47;5047845;28;20462;-43
2023/08/25 09:30:04;;;;;;;13.00;12.20;;;;;;;26.69;100.00;100662.84;5047829;28;20430;-42
2023/08/25 09:32:32;;;;;;;11.87;11.27;;;;;;;27.09;100.00;100669.41;5039709;28;20828;-42
2023/08/25 09:35:11;;;;;;;12.03;11.43;;;;;;;27.33;100.00;100678.13;5047258;28;20564;-42
2023/08/25 09:37:41;;;;;;;12.70;11.47;;;;;;;27.70;100.00;100674.25;5039584;28;20451;-42
2023/08/25 09:40:13;;;;;;;11.50;10.70;;;;;;;28.06;100.00;100677.75;5047574;28;20431;-42
2023/08/25 09:42:41;;;;;;;11.33;10.63;;;;;;;28.14;100.00;100687.13;5046879;28;20558;-42
2023/08/25 09:45:10;;;;;;;12.50;11.40;;;;;;;28.55;100.00;100673.94;5050772;28;20465;-44
2023/08/25 09:47:38;;;;;;;12.50;11.60;;;;;;;28.96;100.00;100690.88;5049695;28;20860;-42
2023/08/25 09:50:06;;;;;;;11.57;10.53;;;;;;;29.26;99.58;100691.09;5046177;28;20480;-41
2023/08/25 09:52:37;;;;;;;11.70;10.83;;;;;;;29.44;98.94;100687.22;5050591;28;20542;-42
2023/08/25 09:55:06;;;;;;;10.20;9.60;;;;;;;29.52;100.00;100687.22;5049763;28;20978;-44
2023/08/25 09:57:37;;;;;;;9.97;9.27;;;;;;;29.78;100.00;100689.16;5042553;28;20442;-44
2023/08/25 10:00:08;;;;;;;11.60;10.67;;;;;;;29.70;98.35;100693.50;5051155;28;20485;-47
2023/08/25 10:02:36;;;;;;;10.27;9.57;;;;;;;29.47;92.18;100697.56;5050529;28;20478;-41
2023/08/25 10:05:05;;;;;;;9.67;9.07;;;;;;;29.38;93.00;100705.00;5050162;28;20459;-42
2023/08/25 10:07:34;;;;;;;10.50;9.57;;;;;;;28.84;96.14;100706.34;5049294;28;20514;-42
2023/08/25 10:10:02;;;;;;;10.60;10.00;;;;;;;28.67;98.57;100707.09;5038915;28;20522;-42
2023/08/25 10:12:32;;;;;;;11.03;9.93;;;;;;;28.80;98.15;100710.84;5047019;28;20476;-42
2023/08/25 10:15:03;;;;;;;10.20;9.27;;;;;;;28.64;98.45;100710.47;5038712;28;20479;-41
2023/08/25 10:17:31;;;;;;;9.40;8.70;;;;;;;28.45;98.11;100709.88;5040134;28;20441;-42
2023/08/25 10:20:04;;;;;;;9.57;8.97;;;;;;;28.62;100.00;100706.38;5046089;28;20516;-44
2023/08/25 10:22:35;;;;;;;9.80;8.97;;;;;;;29.03;100.00;100707.66;5048295;28;20506;-44
2023/08/25 10:25:04;;;;;;;8.93;8.40;;;;;;;29.23;97.25;100710.94;5045244;28;20476;-42
2023/08/25 10:27:33;;;;;;;8.97;8.47;;;;;;;29.09;96.77;100720.09;5046118;28;20458;-42
2023/08/25 10:30:03;;;;;;;9.17;8.57;;;;;;;28.71;94.50;100710.81;5044217;28;20891;-42
2023/08/25 10:32:49;;;;;;;8.50;7.90;;;;;;;28.52;93.10;100710.25;5050579;28;20541;-41
2023/08/25 10:35:37;;;;;;;7.57;7.10;;;;;;;28.68;92.56;100716.94;5049342;28;20462;-43
2023/08/25 10:38:04;;;;;;;8.80;8.20;;;;;;;28.68;94.44;100716.94;5050026;28;20794;-42
2023/08/25 10:40:41;;;;;;;8.63;8.13;;;;;;;28.66;97.03;100701.91;5040986;28;20431;-42
2023/08/25 10:43:09;;;;;;;10.33;9.53;;;;;;;28.82;95.46;100698.41;5043930;28;20517;-42
2023/08/25 10:45:38;;;;;;;8.40;7.87;;;;;;;28.96;95.35;100712.81;5038835;28;20646;-43
2023/08/25 10:48:07;;;;;;;8.23;7.63;;;;;;;28.80;93.40;100706.16;5049954;28;21001;-42
2023/08/25 10:50:35;;;;;;;7.17;6.70;;;;;;;28.75;91.40;100698.09;5040458;28;20439;-41
2023/08/25 10:53:05;;;;;;;7.17;6.63;;;;;;;28.68;83.82;100708.69;5038352;28;20531;-42
2023/08/25 10:55:33;;;;;;;7.67;6.60;;;;;;;28.68;88.36;100710.63;5045971;28;20462;-42
2023/08/25 10:58:03;;;;;;;7.43;7.03;;;;;;;28.93;90.25;100707.16;5049872;28;20439;-45
2023/08/25 11:00:33;;;;;;;8.40;7.70;;;;;;;28.91;90.60;100701.97;5041227;28;20911;-45
2023/08/25 11:03:03;;;;;;;19.90;8.90;;;;;;;28.78;88.97;100694.69;5049445;28;20529;-44
2023/08/25 11:05:43;;;;;;;9.07;8.17;;;;;;;28.53;87.98;100695.38;5048811;28;20549;-44
2023/08/25 11:08:25;;;;;;;8.50;7.90;;;;;;;28.59;88.83;100705.09;5044450;28;20431;-42